sensor_id;sensor_type;location;lat;lon;timestamp;pressure;altitude;pressure_sealevel;temperature;humidity
25498;BME280;13406;53.380;7.226;2023-07-30T00:01:37;100340.81;;;16.73;100.00
25498;BME280;13406;53.380;7.226;2023-07-30T00:04:02;100332.81;;;16.62;100.00
25498;BME280;13406;53.380;7.226;2023-07-30T00:06:28;100292.31;;;16.72;100.00
25498;BME280;13406;53.380;7.226;2023-07-30T00:08:53;100259.78;;;16.67;100.00
25498;BME280;13406;53.380;7.226;2023-07-30T00:11:18;100265.19;;;16.67;100.00
25498;BME280;13406;53.380;7.226;2023-07-30T00:13:44;100201.44;;;16.32;100.00
25498;BME280;13406;53.380;7.226;2023-07-30T00:16:09;100219.47;;;16.48;100.00
25498;BME280;13406;53.380;7.226;2023-07-30T00:18:35;100267.63;;;16.68;100.00
25498;BME280;13406;53.380;7.226;2023-07-30T00:21:00;100251.88;;;16.65;100.00
25498;BME280;13406;53.380;7.226;2023-07-30T00:23:26;100263.88;;;16.47;100.00
25498;BME280;13406;53.380;7.226;2023-07-30T00:25:51;100248.56;;;16.36;100.00
25498;BME280;13406;53.380;7.226;2023-07-30T00:28:16;100247.44;;;16.32;100.00
25498;BME280;13406;53.380;7.226;2023-07-30T00:30:42;100197.28;;;16.24;100.00
25498;BME280;13406;53.380;7.226;2023-07-30T00:33:07;100230.63;;;16.52;100.00
25498;BME280;13406;53.380;7.226;2023-07-30T00:35:33;100229.78;;;16.52;100.00
25498;BME280;13406;53.380;7.226;2023-07-30T00:37:58;100224.94;;;16.54;100.00
25498;BME280;13406;53.380;7.226;2023-07-30T00:40:24;100223.50;;;16.46;100.00
25498;BME280;13406;53.380;7.226;2023-07-30T00:42:49;100227.94;;;16.52;100.00
25498;BME280;13406;53.380;7.226;2023-07-30T00:45:15;100200.66;;;16.37;100.00
25498;BME280;13406;53.380;7.226;2023-07-30T00:47:41;100210.59;;;16.31;100.00
25498;BME280;13406;53.380;7.226;2023-07-30T00:50:07;100218.34;;;16.44;100.00
25498;BME280;13406;53.380;7.226;2023-07-30T00:52:33;100194.19;;;16.38;100.00
25498;BME280;13406;53.380;7.226;2023-07-30T00:55:02;100243.72;;;16.38;100.00
25498;BME280;13406;53.380;7.226;2023-07-30T00:57:28;100224.72;;;16.33;100.00
25498;BME280;13406;53.380;7.226;2023-07-30T00:59:54;100228.06;;;16.40;100.00
25498;BME280;13406;53.380;7.226;2023-07-30T01:02:21;100206.13;;;15.98;100.00
25498;BME280;13406;53.380;7.226;2023-07-30T01:04:46;100210.22;;;16.00;100.00
25498;BME280;13406;53.380;7.226;2023-07-30T01:07:12;100220.78;;;16.02;100.00
25498;BME280;13406;53.380;7.226;2023-07-30T01:09:37;100227.53;;;16.21;100.00
25498;BME280;13406;53.380;7.226;2023-07-30T01:12:04;100192.94;;;16.23;100.00
25498;BME280;13406;53.380;7.226;2023-07-30T01:14:31;100196.78;;;16.06;100.00
25498;BME280;13406;53.380;7.226;2023-07-30T01:16:58;100243.53;;;16.23;100.00
25498;BME280;13406;53.380;7.226;2023-07-30T01:19:23;100057.84;;;15.12;100.00
25498;BME280;13406;53.380;7.226;2023-07-30T01:21:49;100180.22;;;16.02;100.00
25498;BME280;13406;53.380;7.226;2023-07-30T01:24:14;100144.91;;;16.14;100.00
25498;BME280;13406;53.380;7.226;2023-07-30T01:26:43;100171.84;;;16.25;100.00
25498;BME280;13406;53.380;7.226;2023-07-30T01:29:15;100186.06;;;16.16;100.00
25498;BME280;13406;53.380;7.226;2023-07-30T01:31:43;100173.69;;;15.98;100.00
25498;BME280;13406;53.380;7.226;2023-07-30T01:34:10;100151.03;;;16.04;100.00
25498;BME280;13406;53.380;7.226;2023-07-30T01:36:38;100138.59;;;16.03;100.00
25498;BME280;13406;53.380;7.226;2023-07-30T01:39:04;100152.47;;;16.12;100.00
25498;BME280;13406;53.380;7.226;2023-07-30T01:41:31;100187.78;;;16.00;100.00
25498;BME280;13406;53.380;7.226;2023-07-30T01:43:56;100185.84;;;16.17;100.00
25498;BME280;13406;53.380;7.226;2023-07-30T01:46:22;100173.63;;;16.15;100.00
25498;BME280;13406;53.380;7.226;2023-07-30T01:48:47;100208.66;;;16.04;100.00
25498;BME280;13406;53.380;7.226;2023-07-30T01:51:13;100193.69;;;16.19;100.00
25498;BME280;13406;53.380;7.226;2023-07-30T01:53:38;100168.81;;;15.78;100.00
25498;BME280;13406;53.380;7.226;2023-07-30T01:56:04;100161.38;;;15.68;100.00
25498;BME280;13406;53.380;7.226;2023-07-30T01:58:29;100177.25;;;16.03;100.00
25498;BME280;13406;53.380;7.226;2023-07-30T02:00:54;100173.31;;;15.72;100.00
25498;BME280;13406;53.380;7.226;2023-07-30T02:03:20;100195.75;;;15.73;100.00
25498;BME280;13406;53.380;7.226;2023-07-30T02:05:46;100191.03;;;15.80;100.00
25498;BME280;13406;53.380;7.226;2023-07-30T02:08:11;100202.72;;;15.86;100.00
25498;BME280;13406;53.380;7.226;2023-07-30T02:10:41;100213.59;;;15.91;100.00
25498;BME280;13406;53.380;7.226;2023-07-30T02:13:06;100154.41;;;15.55;100.00
25498;BME280;13406;53.380;7.226;2023-07-30T02:15:32;100164.63;;;15.53;100.00
25498;BME280;13406;53.380;7.226;2023-07-30T02:17:57;100223.19;;;15.81;100.00
25498;BME280;13406;53.380;7.226;2023-07-30T02:20:22;100219.59;;;15.76;100.00
25498;BME280;13406;53.380;7.226;2023-07-30T02:22:48;100218.28;;;15.78;100.00
25498;BME280;13406;53.380;7.226;2023-07-30T02:25:13;100231.56;;;15.80;100.00
25498;BME280;13406;53.380;7.226;2023-07-30T02:27:39;100216.75;;;15.82;100.00
25498;BME280;13406;53.380;7.226;2023-07-30T02:30:05;100217.13;;;15.91;100.00
25498;BME280;13406;53.380;7.226;2023-07-30T02:32:30;100201.94;;;15.68;100.00
25498;BME280;13406;53.380;7.226;2023-07-30T02:34:56;100227.59;;;16.04;100.00
25498;BME280;13406;53.380;7.226;2023-07-30T02:37:21;100232.69;;;16.01;100.00
25498;BME280;13406;53.380;7.226;2023-07-30T02:39:47;100197.97;;;15.76;100.00
25498;BME280;13406;53.380;7.226;2023-07-30T02:42:12;100232.13;;;15.82;100.00
25498;BME280;13406;53.380;7.226;2023-07-30T02:44:37;100202.41;;;15.65;100.00
25498;BME280;13406;53.380;7.226;2023-07-30T02:47:03;100223.81;;;16.06;100.00
25498;BME280;13406;53.380;7.226;2023-07-30T02:49:28;100210.97;;;15.96;100.00
25498;BME280;13406;53.380;7.226;2023-07-30T02:51:54;100232.47;;;15.86;100.00
25498;BME280;13406;53.380;7.226;2023-07-30T02:54:19;100203.31;;;15.71;100.00
25498;BME280;13406;53.380;7.226;2023-07-30T02:56:48;100207.28;;;15.85;100.00
25498;BME280;13406;53.380;7.226;2023-07-30T02:59:13;100098.44;;;15.34;100.00
25498;BME280;13406;53.380;7.226;2023-07-30T03:01:38;100222.56;;;16.13;100.00
25498;BME280;13406;53.380;7.226;2023-07-30T03:04:04;100236.59;;;16.10;100.00
25498;BME280;13406;53.380;7.226;2023-07-30T03:06:29;100235.31;;;15.96;100.00
25498;BME280;13406;53.380;7.226;2023-07-30T03:08:55;100184.78;;;15.79;100.00
25498;BME280;13406;53.380;7.226;2023-07-30T03:11:22;100239.91;;;15.95;100.00
25498;BME280;13406;53.380;7.226;2023-07-30T03:13:47;100241.38;;;16.03;100.00
25498;BME280;13406;53.380;7.226;2023-07-30T03:16:13;100203.31;;;15.71;100.00
25498;BME280;13406;53.380;7.226;2023-07-30T03:18:38;100238.19;;;15.89;100.00
25498;BME280;13406;53.380;7.226;2023-07-30T03:21:03;100213.94;;;15.94;100.00
25498;BME280;13406;53.380;7.226;2023-07-30T03:23:29;100203.47;;;15.81;100.00
25498;BME280;13406;53.380;7.226;2023-07-30T03:25:54;100204.53;;;15.80;100.00
25498;BME280;13406;53.380;7.226;2023-07-30T03:28:20;100180.59;;;15.89;100.00
25498;BME280;13406;53.380;7.226;2023-07-30T03:30:45;100189.19;;;15.86;100.00
25498;BME280;13406;53.380;7.226;2023-07-30T03:33:11;100120.38;;;15.76;100.00
25498;BME280;13406;53.380;7.226;2023-07-30T03:35:36;100104.19;;;15.59;100.00
25498;BME280;13406;53.380;7.226;2023-07-30T03:38:01;100122.53;;;15.74;100.00
25498;BME280;13406;53.380;7.226;2023-07-30T03:40:27;100134.78;;;15.82;100.00
25498;BME280;13406;53.380;7.226;2023-07-30T03:42:53;100137.88;;;15.69;100.00
25498;BME280;13406;53.380;7.226;2023-07-30T03:45:19;100138.25;;;15.77;100.00
25498;BME280;13406;53.380;7.226;2023-07-30T03:47:44;100056.97;;;14.89;100.00
25498;BME280;13406;53.380;7.226;2023-07-30T03:50:10;100127.06;;;15.52;100.00
25498;BME280;13406;53.380;7.226;2023-07-30T03:52:35;100124.59;;;15.50;100.00
25498;BME280;13406;53.380;7.226;2023-07-30T03:55:01;100106.00;;;15.54;100.00
25498;BME280;13406;53.380;7.226;2023-07-30T03:57:26;100135.28;;;15.79;100.00
25498;BME280;13406;53.380;7.226;2023-07-30T03:59:52;100077.16;;;15.21;100.00
25498;BME280;13406;53.380;7.226;2023-07-30T04:02:17;100143.59;;;15.72;100.00
25498;BME280;13406;53.380;7.226;2023-07-30T04:04:43;100144.56;;;15.66;100.00
25498;BME280;13406;53.380;7.226;2023-07-30T04:07:13;100144.47;;;15.78;100.00
25498;BME280;13406;53.380;7.226;2023-07-30T04:09:39;100139.00;;;15.56;100.00
25498;BME280;13406;53.380;7.226;2023-07-30T04:12:04;100115.88;;;15.26;100.00
25498;BME280;13406;53.380;7.226;2023-07-30T04:14:30;100121.16;;;15.38;100.00
25498;BME280;13406;53.380;7.226;2023-07-30T04:16:55;100126.25;;;15.51;100.00
25498;BME280;13406;53.380;7.226;2023-07-30T04:19:21;100143.09;;;15.42;100.00
25498;BME280;13406;53.380;7.226;2023-07-30T04:21:46;100141.97;;;15.54;100.00
25498;BME280;13406;53.380;7.226;2023-07-30T04:24:12;100124.69;;;15.38;100.00
25498;BME280;13406;53.380;7.226;2023-07-30T04:26:37;100054.25;;;14.89;100.00
25498;BME280;13406;53.380;7.226;2023-07-30T04:29:02;100043.94;;;14.86;100.00
25498;BME280;13406;53.380;7.226;2023-07-30T04:31:28;100118.97;;;15.35;100.00
25498;BME280;13406;53.380;7.226;2023-07-30T04:33:53;100148.69;;;15.52;100.00
25498;BME280;13406;53.380;7.226;2023-07-30T04:36:18;100096.81;;;15.16;100.00
25498;BME280;13406;53.380;7.226;2023-07-30T04:38:44;100149.16;;;15.66;100.00
25498;BME280;13406;53.380;7.226;2023-07-30T04:41:09;100152.00;;;15.76;100.00
25498;BME280;13406;53.380;7.226;2023-07-30T04:43:35;100170.88;;;15.54;100.00
25498;BME280;13406;53.380;7.226;2023-07-30T04:46:00;100138.25;;;15.60;100.00
25498;BME280;13406;53.380;7.226;2023-07-30T04:48:26;100152.50;;;15.56;100.00
25498;BME280;13406;53.380;7.226;2023-07-30T04:50:51;100156.47;;;15.48;100.00
25498;BME280;13406;53.380;7.226;2023-07-30T04:53:17;100142.44;;;15.51;100.00
25498;BME280;13406;53.380;7.226;2023-07-30T04:55:43;100134.16;;;15.58;100.00
25498;BME280;13406;53.380;7.226;2023-07-30T04:58:09;100144.25;;;15.46;100.00
25498;BME280;13406;53.380;7.226;2023-07-30T05:00:34;100153.97;;;15.64;100.00
25498;BME280;13406;53.380;7.226;2023-07-30T05:03:00;100154.72;;;15.59;100.00
25498;BME280;13406;53.380;7.226;2023-07-30T05:05:25;100151.69;;;15.72;100.00
25498;BME280;13406;53.380;7.226;2023-07-30T05:07:50;100150.13;;;15.76;100.00
25498;BME280;13406;53.380;7.226;2023-07-30T05:10:16;100111.44;;;15.37;100.00
25498;BME280;13406;53.380;7.226;2023-07-30T05:12:41;100152.84;;;15.59;100.00
25498;BME280;13406;53.380;7.226;2023-07-30T05:15:07;100152.81;;;15.76;100.00
25498;BME280;13406;53.380;7.226;2023-07-30T05:17:33;100143.84;;;15.71;100.00
25498;BME280;13406;53.380;7.226;2023-07-30T05:19:58;100062.84;;;15.20;100.00
25498;BME280;13406;53.380;7.226;2023-07-30T05:22:24;100147.69;;;15.75;100.00
25498;BME280;13406;53.380;7.226;2023-07-30T05:24:50;100146.78;;;15.69;100.00
25498;BME280;13406;53.380;7.226;2023-07-30T05:27:16;100135.16;;;15.52;100.00
25498;BME280;13406;53.380;7.226;2023-07-30T05:29:41;100140.56;;;15.69;100.00
25498;BME280;13406;53.380;7.226;2023-07-30T05:32:07;100125.41;;;15.68;100.00
25498;BME280;13406;53.380;7.226;2023-07-30T05:34:33;100110.19;;;15.45;100.00
25498;BME280;13406;53.380;7.226;2023-07-30T05:36:58;100045.25;;;15.01;100.00
25498;BME280;13406;53.380;7.226;2023-07-30T05:39:24;100142.84;;;15.60;100.00
25498;BME280;13406;53.380;7.226;2023-07-30T05:41:49;100061.22;;;15.02;100.00
25498;BME280;13406;53.380;7.226;2023-07-30T05:44:15;100148.81;;;15.62;100.00
25498;BME280;13406;53.380;7.226;2023-07-30T05:46:40;100142.06;;;15.81;100.00
25498;BME280;13406;53.380;7.226;2023-07-30T05:49:06;100147.59;;;15.70;100.00
25498;BME280;13406;53.380;7.226;2023-07-30T05:51:31;100136.13;;;15.79;100.00
25498;BME280;13406;53.380;7.226;2023-07-30T05:53:56;100154.66;;;15.93;100.00
25498;BME280;13406;53.380;7.226;2023-07-30T05:56:22;100141.91;;;15.88;100.00
25498;BME280;13406;53.380;7.226;2023-07-30T05:58:47;100137.56;;;15.87;100.00
25498;BME280;13406;53.380;7.226;2023-07-30T06:01:13;100110.22;;;15.84;100.00
25498;BME280;13406;53.380;7.226;2023-07-30T06:03:38;100152.84;;;15.98;100.00
25498;BME280;13406;53.380;7.226;2023-07-30T06:06:03;100121.63;;;15.91;100.00
25498;BME280;13406;53.380;7.226;2023-07-30T06:08:29;100110.06;;;15.95;100.00
25498;BME280;13406;53.380;7.226;2023-07-30T06:11:01;100149.19;;;16.10;100.00
25498;BME280;13406;53.380;7.226;2023-07-30T06:13:28;100149.00;;;16.16;100.00
25498;BME280;13406;53.380;7.226;2023-07-30T06:15:54;100144.78;;;16.25;100.00
25498;BME280;13406;53.380;7.226;2023-07-30T06:18:19;100135.31;;;16.23;100.00
25498;BME280;13406;53.380;7.226;2023-07-30T06:20:44;100117.41;;;16.22;100.00
25498;BME280;13406;53.380;7.226;2023-07-30T06:23:10;100140.31;;;16.36;100.00
25498;BME280;13406;53.380;7.226;2023-07-30T06:25:35;100139.19;;;16.32;100.00
25498;BME280;13406;53.380;7.226;2023-07-30T06:28:01;100155.00;;;16.45;100.00
25498;BME280;13406;53.380;7.226;2023-07-30T06:30:26;100141.19;;;16.42;100.00
25498;BME280;13406;53.380;7.226;2023-07-30T06:32:52;100152.66;;;16.54;100.00
25498;BME280;13406;53.380;7.226;2023-07-30T06:35:17;100168.16;;;16.59;100.00
25498;BME280;13406;53.380;7.226;2023-07-30T06:37:43;100176.94;;;16.71;100.00
25498;BME280;13406;53.380;7.226;2023-07-30T06:40:08;100165.38;;;16.26;100.00
25498;BME280;13406;53.380;7.226;2023-07-30T06:42:34;100173.94;;;16.40;100.00
25498;BME280;13406;53.380;7.226;2023-07-30T06:44:59;100188.34;;;16.73;100.00
25498;BME280;13406;53.380;7.226;2023-07-30T06:47:24;100189.56;;;16.82;100.00
25498;BME280;13406;53.380;7.226;2023-07-30T06:49:50;100174.75;;;16.68;100.00
25498;BME280;13406;53.380;7.226;2023-07-30T06:52:15;100200.22;;;16.94;100.00
25498;BME280;13406;53.380;7.226;2023-07-30T06:54:41;100195.31;;;16.64;100.00
25498;BME280;13406;53.380;7.226;2023-07-30T06:57:06;100201.53;;;16.64;100.00
25498;BME280;13406;53.380;7.226;2023-07-30T06:59:33;100199.63;;;16.65;100.00
25498;BME280;13406;53.380;7.226;2023-07-30T07:01:59;100192.84;;;16.62;100.00
25498;BME280;13406;53.380;7.226;2023-07-30T07:04:24;100200.00;;;16.73;100.00
25498;BME280;13406;53.380;7.226;2023-07-30T07:06:50;100186.78;;;16.77;100.00
25498;BME280;13406;53.380;7.226;2023-07-30T07:09:15;100163.31;;;16.61;100.00
25498;BME280;13406;53.380;7.226;2023-07-30T07:11:41;100183.31;;;16.60;100.00
25498;BME280;13406;53.380;7.226;2023-07-30T07:14:06;100130.50;;;16.30;100.00
25498;BME280;13406;53.380;7.226;2023-07-30T07:16:31;100187.94;;;16.59;100.00
25498;BME280;13406;53.380;7.226;2023-07-30T07:18:57;100186.91;;;16.65;100.00
25498;BME280;13406;53.380;7.226;2023-07-30T07:21:22;100184.88;;;16.78;100.00
25498;BME280;13406;53.380;7.226;2023-07-30T07:23:48;100181.38;;;16.77;100.00
25498;BME280;13406;53.380;7.226;2023-07-30T07:26:13;100190.94;;;16.63;100.00
25498;BME280;13406;53.380;7.226;2023-07-30T07:28:39;100174.31;;;16.54;100.00
25498;BME280;13406;53.380;7.226;2023-07-30T07:31:04;100189.03;;;16.63;100.00
25498;BME280;13406;53.380;7.226;2023-07-30T07:33:29;100122.06;;;16.26;100.00
25498;BME280;13406;53.380;7.226;2023-07-30T07:36:07;100191.75;;;16.85;100.00
25498;BME280;13406;53.380;7.226;2023-07-30T07:38:34;100202.06;;;16.88;100.00
25498;BME280;13406;53.380;7.226;2023-07-30T07:41:00;100204.25;;;16.91;100.00
25498;BME280;13406;53.380;7.226;2023-07-30T07:43:26;100218.16;;;17.00;100.00
25498;BME280;13406;53.380;7.226;2023-07-30T07:45:52;100185.47;;;16.80;100.00
25498;BME280;13406;53.380;7.226;2023-07-30T07:48:17;100145.03;;;16.73;100.00
25498;BME280;13406;53.380;7.226;2023-07-30T07:50:43;100172.09;;;17.00;100.00
25498;BME280;13406;53.380;7.226;2023-07-30T07:53:08;100182.31;;;17.20;100.00
25498;BME280;13406;53.380;7.226;2023-07-30T07:55:34;100197.22;;;17.23;100.00
25498;BME280;13406;53.380;7.226;2023-07-30T07:58:02;100195.84;;;17.20;100.00
25498;BME280;13406;53.380;7.226;2023-07-30T08:00:28;100203.22;;;17.25;100.00
25498;BME280;13406;53.380;7.226;2023-07-30T08:02:53;100169.31;;;17.22;100.00
25498;BME280;13406;53.380;7.226;2023-07-30T08:05:19;100163.91;;;17.22;100.00
25498;BME280;13406;53.380;7.226;2023-07-30T08:07:49;100205.00;;;17.46;100.00
25498;BME280;13406;53.380;7.226;2023-07-30T08:10:15;100204.28;;;17.61;100.00
25498;BME280;13406;53.380;7.226;2023-07-30T08:12:41;100243.03;;;17.89;100.00
25498;BME280;13406;53.380;7.226;2023-07-30T08:15:07;100229.19;;;17.90;100.00
25498;BME280;13406;53.380;7.226;2023-07-30T08:17:32;100276.44;;;17.94;100.00
25498;BME280;13406;53.380;7.226;2023-07-30T08:19:58;100197.34;;;17.38;100.00
25498;BME280;13406;53.380;7.226;2023-07-30T08:22:23;100179.50;;;17.42;100.00
25498;BME280;13406;53.380;7.226;2023-07-30T08:24:49;100237.13;;;17.65;100.00
25498;BME280;13406;53.380;7.226;2023-07-30T08:27:14;100252.56;;;17.59;100.00
25498;BME280;13406;53.380;7.226;2023-07-30T08:29:40;100346.25;;;18.04;100.00
25498;BME280;13406;53.380;7.226;2023-07-30T08:32:08;100362.63;;;18.19;100.00
25498;BME280;13406;53.380;7.226;2023-07-30T08:34:34;100366.97;;;17.83;100.00
25498;BME280;13406;53.380;7.226;2023-07-30T08:36:59;100420.38;;;18.10;100.00
25498;BME280;13406;53.380;7.226;2023-07-30T08:39:24;100401.94;;;18.12;100.00
25498;BME280;13406;53.380;7.226;2023-07-30T08:41:50;100415.38;;;18.28;100.00
25498;BME280;13406;53.380;7.226;2023-07-30T08:44:16;100342.69;;;17.71;100.00
25498;BME280;13406;53.380;7.226;2023-07-30T08:46:41;100428.09;;;18.28;100.00
25498;BME280;13406;53.380;7.226;2023-07-30T08:49:07;100432.34;;;18.46;100.00
25498;BME280;13406;53.380;7.226;2023-07-30T08:51:34;100435.00;;;18.41;100.00
25498;BME280;13406;53.380;7.226;2023-07-30T08:54:01;100441.28;;;18.46;100.00
25498;BME280;13406;53.380;7.226;2023-07-30T08:56:27;100479.03;;;18.48;100.00
25498;BME280;13406;53.380;7.226;2023-07-30T08:58:54;100532.66;;;18.30;100.00
25498;BME280;13406;53.380;7.226;2023-07-30T09:01:24;100547.16;;;18.41;100.00
25498;BME280;13406;53.380;7.226;2023-07-30T09:03:53;100507.50;;;18.40;100.00
25498;BME280;13406;53.380;7.226;2023-07-30T09:06:18;100631.34;;;18.19;100.00
25498;BME280;13406;53.380;7.226;2023-07-30T09:08:44;100704.47;;;18.26;100.00
25498;BME280;13406;53.380;7.226;2023-07-30T09:11:10;100735.97;;;18.27;100.00
25498;BME280;13406;53.380;7.226;2023-07-30T09:13:40;100767.66;;;18.21;100.00
25498;BME280;13406;53.380;7.226;2023-07-30T09:16:14;100794.50;;;18.18;100.00
25498;BME280;13406;53.380;7.226;2023-07-30T09:18:49;100674.72;;;17.53;100.00
25498;BME280;13406;53.380;7.226;2023-07-30T09:21:14;100819.75;;;18.01;100.00
25498;BME280;13406;53.380;7.226;2023-07-30T09:23:46;100851.78;;;17.99;100.00
25498;BME280;13406;53.380;7.226;2023-07-30T09:26:13;100839.13;;;18.27;100.00
25498;BME280;13406;53.380;7.226;2023-07-30T09:28:39;100871.41;;;18.23;100.00
25498;BME280;13406;53.380;7.226;2023-07-30T09:31:07;100821.31;;;18.14;100.00
25498;BME280;13406;53.380;7.226;2023-07-30T09:33:33;100809.50;;;18.03;100.00
25498;BME280;13406;53.380;7.226;2023-07-30T09:36:03;100773.53;;;17.96;100.00
25498;BME280;13406;53.380;7.226;2023-07-30T09:38:29;100744.06;;;17.83;100.00
25498;BME280;13406;53.380;7.226;2023-07-30T09:41:02;100710.13;;;17.80;100.00
25498;BME280;13406;53.380;7.226;2023-07-30T09:43:31;100665.56;;;17.76;100.00
25498;BME280;13406;53.380;7.226;2023-07-30T09:46:05;100661.03;;;18.04;100.00
25498;BME280;13406;53.380;7.226;2023-07-30T09:48:32;100672.59;;;17.77;100.00
25498;BME280;13406;53.380;7.226;2023-07-30T09:51:02;100643.44;;;18.06;100.00
25498;BME280;13406;53.380;7.226;2023-07-30T09:53:32;100636.00;;;17.97;100.00
25498;BME280;13406;53.380;7.226;2023-07-30T09:56:05;100671.38;;;18.29;100.00
25498;BME280;13406;53.380;7.226;2023-07-30T09:58:33;100689.63;;;18.34;100.00
25498;BME280;13406;53.380;7.226;2023-07-30T10:01:03;100699.53;;;18.45;100.00
25498;BME280;13406;53.380;7.226;2023-07-30T10:03:29;100636.00;;;17.97;100.00
25498;BME280;13406;53.380;7.226;2023-07-30T10:06:02;100586.13;;;17.59;100.00
25498;BME280;13406;53.380;7.226;2023-07-30T10:08:31;100648.69;;;17.91;100.00
25498;BME280;13406;53.380;7.226;2023-07-30T10:10:59;100584.97;;;17.55;100.00
25498;BME280;13406;53.380;7.226;2023-07-30T10:13:26;100606.38;;;17.95;100.00
25498;BME280;13406;53.380;7.226;2023-07-30T10:15:52;100525.94;;;17.62;100.00
25498;BME280;13406;53.380;7.226;2023-07-30T10:18:18;100536.91;;;17.72;100.00
25498;BME280;13406;53.380;7.226;2023-07-30T10:20:53;100451.25;;;17.27;100.00
25498;BME280;13406;53.380;7.226;2023-07-30T10:23:20;100387.91;;;16.89;100.00
25498;BME280;13406;53.380;7.226;2023-07-30T10:25:47;100420.41;;;17.33;100.00
25498;BME280;13406;53.380;7.226;2023-07-30T10:28:27;100399.75;;;17.27;100.00
25498;BME280;13406;53.380;7.226;2023-07-30T10:31:01;100368.91;;;17.33;100.00
25498;BME280;13406;53.380;7.226;2023-07-30T10:36:12;100395.22;;;17.38;100.00
25498;BME280;13406;53.380;7.226;2023-07-30T10:38:39;100357.78;;;17.35;100.00
25498;BME280;13406;53.380;7.226;2023-07-30T10:41:12;100338.13;;;17.45;100.00
25498;BME280;13406;53.380;7.226;2023-07-30T10:43:43;100328.25;;;17.33;100.00
25498;BME280;13406;53.380;7.226;2023-07-30T10:46:10;100279.66;;;17.27;100.00
25498;BME280;13406;53.380;7.226;2023-07-30T10:48:38;100275.78;;;17.45;100.00
25498;BME280;13406;53.380;7.226;2023-07-30T10:51:09;100260.22;;;17.35;100.00
25498;BME280;13406;53.380;7.226;2023-07-30T10:53:35;100238.91;;;17.49;100.00
25498;BME280;13406;53.380;7.226;2023-07-30T10:56:06;100212.47;;;17.66;100.00
25498;BME280;13406;53.380;7.226;2023-07-30T10:58:34;100262.06;;;17.94;100.00
25498;BME280;13406;53.380;7.226;2023-07-30T11:01:07;100313.19;;;17.21;100.00
25498;BME280;13406;53.380;7.226;2023-07-30T11:03:33;100290.75;;;17.25;100.00
25498;BME280;13406;53.380;7.226;2023-07-30T11:06:00;100289.97;;;17.30;100.00
25498;BME280;13406;53.380;7.226;2023-07-30T11:11:06;100293.25;;;17.91;100.00
25498;BME280;13406;53.380;7.226;2023-07-30T11:13:42;100301.56;;;18.22;100.00
25498;BME280;13406;53.380;7.226;2023-07-30T11:16:09;100364.31;;;18.73;100.00
25498;BME280;13406;53.380;7.226;2023-07-30T11:18:38;100384.34;;;18.62;100.00
25498;BME280;13406;53.380;7.226;2023-07-30T11:23:29;100461.47;;;18.23;100.00
25498;BME280;13406;53.380;7.226;2023-07-30T11:25:54;100469.63;;;17.96;100.00
25498;BME280;13406;53.380;7.226;2023-07-30T11:28:34;100493.91;;;18.08;100.00
25498;BME280;13406;53.380;7.226;2023-07-30T11:31:02;100460.69;;;17.96;100.00
25498;BME280;13406;53.380;7.226;2023-07-30T11:33:28;100362.63;;;17.28;100.00
25498;BME280;13406;53.380;7.226;2023-07-30T11:35:55;100429.84;;;18.07;100.00
25498;BME280;13406;53.380;7.226;2023-07-30T11:38:25;100426.38;;;17.84;100.00
25498;BME280;13406;53.380;7.226;2023-07-30T11:40:53;100424.53;;;17.90;100.00
25498;BME280;13406;53.380;7.226;2023-07-30T11:43:20;100378.34;;;17.80;100.00
25498;BME280;13406;53.380;7.226;2023-07-30T11:45:45;100405.19;;;18.09;100.00
25498;BME280;13406;53.380;7.226;2023-07-30T11:48:11;100364.75;;;17.53;100.00
25498;BME280;13406;53.380;7.226;2023-07-30T11:50:52;100374.94;;;18.32;100.00
25498;BME280;13406;53.380;7.226;2023-07-30T11:53:18;100370.00;;;18.66;100.00
25498;BME280;13406;53.380;7.226;2023-07-30T11:55:44;100244.41;;;17.96;100.00
25498;BME280;13406;53.380;7.226;2023-07-30T11:58:11;100403.06;;;19.06;100.00
25498;BME280;13406;53.380;7.226;2023-07-30T12:00:39;100362.25;;;18.48;100.00
25498;BME280;13406;53.380;7.226;2023-07-30T12:03:08;100428.75;;;19.35;100.00
25498;BME280;13406;53.380;7.226;2023-07-30T12:05:35;100477.63;;;19.25;100.00
25498;BME280;13406;53.380;7.226;2023-07-30T12:08:02;100444.66;;;19.06;100.00
25498;BME280;13406;53.380;7.226;2023-07-30T12:10:49;100497.84;;;19.45;100.00
25498;BME280;13406;53.380;7.226;2023-07-30T12:13:18;100468.53;;;18.99;100.00
25498;BME280;13406;53.380;7.226;2023-07-30T12:15:51;100433.56;;;18.70;100.00
25498;BME280;13406;53.380;7.226;2023-07-30T12:18:17;100435.94;;;18.99;100.00
25498;BME280;13406;53.380;7.226;2023-07-30T12:20:43;100408.28;;;19.23;100.00
25498;BME280;13406;53.380;7.226;2023-07-30T12:23:08;100440.53;;;19.61;100.00
25498;BME280;13406;53.380;7.226;2023-07-30T12:25:34;100578.75;;;19.70;100.00
25498;BME280;13406;53.380;7.226;2023-07-30T12:28:00;100638.25;;;20.08;100.00
25498;BME280;13406;53.380;7.226;2023-07-30T12:30:25;100689.34;;;19.86;100.00
25498;BME280;13406;53.380;7.226;2023-07-30T12:32:52;100871.69;;;20.23;100.00
25498;BME280;13406;53.380;7.226;2023-07-30T12:35:17;101072.84;;;20.42;100.00
25498;BME280;13406;53.380;7.226;2023-07-30T12:37:42;100761.56;;;20.57;100.00
25498;BME280;13406;53.380;7.226;2023-07-30T12:40:08;100474.91;;;20.08;100.00
25498;BME280;13406;53.380;7.226;2023-07-30T12:42:34;100528.00;;;20.21;100.00
25498;BME280;13406;53.380;7.226;2023-07-30T12:44:59;100574.75;;;19.93;100.00